Inscrivez-vous gratuitement pour accéder aux statistiques détaillées de votre course : Inscription 100% gratuite et sans engagement

Pensez à bien toujours être connecté à votre compte quand vous consultez vos résultats où les palmarès de vos concurrents. Cela vous permettra d'accéder à l'ensemble des outils développés par T2 AreaSe connecter

Résultats du triathlon L de Saint Rémy sur Durolle 2005

dimanche 4 septembre 2005

91 classés

Clt Clt/F Temps Dossard Nom IPR Club GA Natation Vélo CàP
1 01'10'' 4:19:37 BRINGER Patrick MONTLUCON TRI MS3 (1)32'53'' (4)2h29'17'' (4)1h15'55'' (1) Créer mon compte
2 00'41'' 4:21:17 Christophe BASTIE 183 ASM SAINT ETIENNE TRIATHLON 42 MS4 (1)31'56'' (3)2h25'26'' (1)1h22'02'' (2) Sa course
3 00'00'' 4:28:40 edouard ENTRAYGUES 99 SAINT RAPHAEL TRIATHLON MS3 (2)30'57'' (2)2h30'21'' (5)1h25'12'' (6) Sa course
4 00'34'' 4:30:36 GUICHARD Sébastien ASMSE TRI 42 MS3 (3)36'38'' (18)2h28'16'' (3)1h23'26'' (3) Créer mon compte
5 00'38'' 4:37:23 eric AMATTEIS ASMSE TRI 42 MS3 (4)36'13'' (14)2h33'35'' (6)1h24'53'' (5) Sa course
6 00'00'' 4:40:25 FEDELIC Christophe LEMPDES TRIATHLON MS4 (2)37'43'' (20)2h34'47'' (9)1h24'42'' (4) Créer mon compte
7 01'09'' 4:41:02 GUILDEMANN Wilfried TRYSSINGEAUX MS1 (1)36'25'' (15)2h36'18'' (10)1h25'57'' (7) Créer mon compte
8 00'00'' 4:42:00 LEFRANC Christophe ROANNE TRIATHLON MS3 (5)35'50'' (8)2h33'38'' (7)1h30'15'' (14) Créer mon compte
9 00'00'' 4:46:46 CAMISULI Cyril MARIGNANE TRIATHLON MS2 (1)36'08'' (13)2h34'03'' (8)1h34'46'' (16) Créer mon compte
10 00'40'' 4:47:04 LEMAY Benjamin ASMSE TRI 42 MS1 (2)41'30'' (38)2h26'34'' (2)1h37'22'' (20) Créer mon compte
11 00'21'' 4:47:25 Sébastien ESPITALIER 184 ALBI TRIATHLON MS2 (2)35'52'' (9)2h40'03'' (12)1h28'16'' (9) Sa course
12 01'11'' 4:48:02 SAUDEMONT Manoel MONTLUCON TRI MS3 (6)38'12'' (22)2h38'17'' (11)1h29'16'' (11) Créer mon compte
13 00'00'' 4:52:26 FOUCHER Emmanuel ROMANS TRIATHLON MS4 (3)38'59'' (24)2h42'50'' (17)1h27'31'' (8) Créer mon compte
14 00'00'' 4:52:34 JORDA Alain CLE GARDANNE TRI MV1 (1)35'55'' (11)2h43'48'' (19)1h29'49'' (12) Créer mon compte
15 00'44'' 4:54:09 TROTEL Pascal ASPTT VICHY TRIATHLON MV2 (1)35'53'' (10)2h40'50'' (15)1h34'55'' (17) Créer mon compte
16 00'00'' 4:54:57 Arnaud SELUKOV HAUT JURA VO3 MAX TRIATHLON MS4 (4)36'32'' (17)2h41'27'' (16)1h34'37'' (15) Sa course
17 00'17'' 4:55:00 GAYRAL Philippe CLERMONT TRIATHLON MV2 (2)37'51'' (21)2h46'04'' (23)1h28'32'' (10) Créer mon compte
18 00'00'' 4:58:26 MICHEL Xavier GERARDMER TRIATHLON MV1 (2)39'32'' (28)2h40'20'' (13)1h35'23'' (19) Créer mon compte
19 00'25'' 5:03:40 Frédéric ROUDAIRE 74 ASFAS TRI 45 MV1 (3)40'28'' (32)2h50'25'' (33)1h30'08'' (13) Sa course
20 00'00'' 5:04:39 ROUGERIE Ludovic TRI CLUB ISLE/SORGUES MS4 (5)42'19'' (42)2h43'56'' (20)1h35'15'' (18) Créer mon compte
21 00'00'' 5:05:11 PETRE Yohan LEMPDES TRIATHLON MS2 (3)36'04'' (12)2h46'34'' (24)1h39'40'' (26) Créer mon compte
22 01'06'' 5:05:24 MAUREL Frédéric TRISTARS CANNES MV1 (4)34'29'' (6)2h50'03'' (30)1h37'32'' (21) Créer mon compte
23 00'00'' 5:06:43 MORANDI Philippe MARIGNANE TRIATHLON MS3 (7)40'09'' (30)2h45'07'' (21)1h38'27'' (22) Créer mon compte
24 00'36'' 5:12:06 JALON Maxime ASMSE TRI 42 MS1 (3)38'16'' (23)2h45'31'' (22)1h44'12'' (37) Créer mon compte
25 00'00'' 5:13:02 CHAZEAU Christian SORGUES TRIATHLON MV2 (3)39'39'' (29)2h51'03'' (34)1h39'25'' (24) Créer mon compte
26 00'57'' 5:15:35 LEMAINAIS Jean-René CHAMPIGNY TRIATHLON MV1 (5)37'06'' (19)2h43'18'' (18)1h52'45'' (52) Créer mon compte
27 00'00'' 5:16:02 SIVIGNON Anthony FLEURY MEDITERRANEE TRI MS2 (4)30'48'' (1)2h50'23'' (32)1h51'33'' (49) Créer mon compte
28 00'28'' 5:18:18 MALIBA Bruno ASFAS TRI 45 MV2 (4)42'53'' (46)2h51'22'' (36)1h40'58'' (29) Créer mon compte
29 "1 00'04'' 5:18:57 PILAT Virginie ASMSE TRI 42 FS1 (1)34'05'' (5)3h01'57'' (55)1h41'14'' (30) Créer mon compte
30 00'31'' 5:19:44 Pierre BERLIER 43 ASMSE TRI 42 MV3 (1)41'08'' (36)2h53'23'' (40)1h42'33'' (34) Sa course
31 01'08'' 5:20:14 COCHO Emmanuel TRYSSINGEAUX MS3 (8)43'29'' (52)2h54'51'' (41)1h38'52'' (23) Créer mon compte
32 00'00'' 5:20:26 PETRE Cyril LEMPDES TRIATHLON MS2 (5)35'47'' (7)2h50'16'' (31)1h51'18'' (48) Créer mon compte
33 00'00'' 5:22:10 PETOTOT Stéphane CLE GARDANNE TRI MS4 (6)41'02'' (34)2h51'27'' (37)1h45'48'' (42) Créer mon compte
34 00'53'' 5:24:05 PERRICHON Fabrice BOURGES ATHLETIC CLUB MS4 (7)43'01'' (47)2h55'43'' (44)1h42'48'' (35) Créer mon compte
35 00'47'' 5:24:55 BOURDOULEIX David ASPTT VICHY TRIATHLON MS4 (8)43'05'' (48)2h56'20'' (45)1h42'08'' (32) Créer mon compte
36 00'59'' 5:25:41 GORRIN Lionel CHAMPIGNY TRIATHLON MS3 (9)44'10'' (60)2h46'37'' (25)1h51'06'' (47) Créer mon compte
37 00'56'' 5:25:54 PIRON Pierre-Jean CHAMPIGNY TRIATHLON MS3 (10)44'07'' (59)2h52'25'' (39)1h45'36'' (41) Créer mon compte
38 00'42'' 5:26:32 RAVACHOL Eric ASMSE TRI 42 MS4 (9)43'45'' (54)2h54'59'' (42)1h44'52'' (38) Créer mon compte
39 "2 00'05'' 5:27:04 BRIDIER Félicie BAC TRIATHLON FS2 (1)40'12'' (31)3h04'20'' (61)1h40'20'' (27) Créer mon compte
40 00'24'' 5:30:28 BLANVILLAIN Jean Paul ASFAS TRI 45 MV2 (5)48'39'' (73)2h52'11'' (38)1h45'27'' (40) Créer mon compte
41 00'49'' 5:30:58 ROUTIER Cyrille ASPTT VICHY TRIATHLON MS2 (6)40'58'' (33)2h51'19'' (35)1h54'26'' (56) Créer mon compte
42 00'00'' 5:31:20 BEYNEL Patrice PUISSANCE 3 MS4 (10)41'05'' (35)2h49'08'' (28)1h57'54'' (62) Créer mon compte
43 00'00'' 5:31:55 BARTHELEMY Grégory MISTRAL TRIATH' CLUB MS2 (7)42'16'' (41)2h40'35'' (14)2h05'13'' (75) Créer mon compte
44 00'00'' 5:33:26 DURY Stéphane MISTRAL TRIATH' CLUB MS2 (8)43'22'' (50)2h48'49'' (27)1h57'24'' (60) Créer mon compte
45 00'30'' 5:33:59 PETIT Michel ASMSE TRI 42 MS3 (11)36'30'' (16)2h47'07'' (26)2h07'06'' (76) Créer mon compte
46 00'15'' 5:34:12 PRANCHERE Dominique CLERMONT TRIATHLON MV2 (6)42'42'' (45)3h02'25'' (57)1h44'03'' (36) Créer mon compte
47 00'43'' 5:35:11 DAVY Philippe ASPTT VICHY TRIATHLON MV3 (2)44'55'' (65)2h59'07'' (51)1h46'47'' (44) Créer mon compte
48 00'16'' 5:35:25 LECOIN Philippe CLERMONT TRIATHLON MV2 (7)44'19'' (62)2h58'42'' (49)00'00'' Créer mon compte
49 00'00'' 5:36:10 CAPUTO Cyril ROMANS TRIATHLON MS3 (12)39'09'' (26)2h49'28'' (29)2h05'06'' (74) Créer mon compte
50 00'00'' 5:38:20 LEVERNE Gérald CLE GARDANNE TRI MS4 (11)39'11'' (27)2h55'11'' (43)1h59'39'' (66) Créer mon compte
51 00'39'' 5:38:25 GACHON Yves ASMSE TRI 42 MS3 (13)52'45'' (84)2h59'36'' (53)1h41'16'' (31) Créer mon compte
52 00'00'' 5:40:26 FAVREAU Jérôme LUCON VENDEE TRI MV1 (6)52'37'' (83)3h04'34'' (62)1h39'27'' (25) Créer mon compte
53 00'00'' 5:42:04 BARAT Philippe SAM TRIATHLON MS4 (12)43'56'' (57)3h00'47'' (54)1h51'02'' (46) Créer mon compte
54 00'00'' 5:42:23 CHERION Joel LEMPDES TRIATHLON MS4 (13)53'37'' (88)2h59'31'' (52)1h45'20'' (39) Créer mon compte
55 00'51'' 5:43:16 CHANTELAUZE Claude BILLOM TRIATHLON MV1 (7)43'35'' (53)3h09'53'' (68)1h42'15'' (33) Créer mon compte
56 00'18'' 5:43:17 OUCHCHANE Lemlih CLERMONT TRIATHLON MS3 (14)43'51'' (56)3h02'33'' (58)1h52'57'' (53) Créer mon compte
57 00'00'' 5:44:58 AZOU Gwennhael EVREUX AC TRIATHLON MV2 (8)42'29'' (44)3h09'13'' (65)00'00'' Créer mon compte
58 "3 00'02'' 5:45:52 JALON Françoise ASMSE TRI 42 FV3 (1)49'27'' (75)3h12'03'' (70)1h40'32'' (28) Créer mon compte
59 00'48'' 5:46:14 FAURE Laurent ASPTT VICHY TRIATHLON MS3 (15)43'50'' (55)2h57'23'' (47)2h01'42'' (70) Créer mon compte
60 00'55'' 5:47:11 MORIN Yves CHALON TRIATHLON MS4 (14)44'14'' (61)3h02'15'' (56)00'00'' Créer mon compte
61 00'00'' 5:47:47 DE MATOS José LEMPDES TRIATHLON MS4 (15)50'06'' (79)2h57'03'' (46)1h56'43'' (58) Créer mon compte
62 01'00'' 5:52:02 DUFAUD Mickael TRI GROUP VALENTINOIS MS3 (16)55'32'' (90)2h58'16'' (48)1h54'26'' (57) Créer mon compte
63 "4 00'11'' 5:52:53 BREMER Carola TVA FS4 (1)39'00'' (25)3h13'32'' (72)1h52'01'' (50) Créer mon compte
64 00'00'' 5:53:01 SALINAS Christophe CLAIR RILLIEUX MS4 (16)48'22'' (71)3h05'50'' (63)1h54'03'' (54) Créer mon compte
65 00'29'' 5:53:16 BENITO Laurent ASFAS TRI 45 MS4 (17)43'18'' (49)3h12'57'' (71)1h52'10'' (51) Créer mon compte
66 00'00'' 5:56:00 PRADAL Philippe SORGUES TRIATHLON MS4 (18)45'23'' (66)3h09'22'' (66)1h57'47'' (61) Créer mon compte
67 00'00'' 5:56:33 BURELLIER Régis ROANNE TRIATHLON MS3 (17)42'25'' (43)3h14'30'' (75)1h56'50'' (59) Créer mon compte
68 00'19'' 5:57:19 GARCIA Luc AL ECHIROLLES TRI MV1 (8)52'34'' (82)3h03'04'' (59)1h58'23'' (64) Créer mon compte
69 00'20'' 5:57:19 RODRIGES Gilbert AL ECHIROLLES TRI MS3 (18)44'04'' (58)3h11'02'' (69)1h58'14'' (63) Créer mon compte
70 00'27'' 5:58:55 DANIEL SAINDO ASFAS TRI 45 MV1 (9)50'15'' (80)3h09'39'' (67)1h54'25'' (55) Sa course
71 "5 00'10'' 6:07:21 RECCO Estelle TRI CLUB ISLE/SORGUES FS3 (1)53'50'' (89)3h18'53'' (77)1h49'27'' (45) Créer mon compte
72 00'22'' 6:03:50 MARTIN-VILLEPOU Alain ASFAS TRI 45 MV4 (1)46'58'' (69)3h03'30'' (60)2h07'07'' (77) Créer mon compte
73 00'00'' 6:07:45 PANAROTTO Fabien ROANNE TRIATHLON MS4 (19)44'31'' (63)3h14'07'' (73)2h03'10'' (71) Créer mon compte
74 00'00'' 6:09:28 NAVARRO Michel LE PUY EN VELAY TRI MV2 (9)52'54'' (85)3h26'28'' (81)1h46'16'' (43) Créer mon compte
75 00'46'' 6:11:13 JARSAILLON André ASPTT VICHY TRIATHLON MV1 (10)49'58'' (78)3h07'43'' (64)2h08'16'' (79) Créer mon compte
76 00'52'' 6:11:29 BREGERE Damien BOURGES ATHLETIC CLUB MS2 (9)43'22'' (51)2h58'55'' (50)2h26'08'' (84) Créer mon compte
77 "6 00'07'' 6:14:24 MALPERTU Stéphanie HAUTE CORREZE TRI FS2 (2)48'35'' (72)3h21'22'' (78)2h00'27'' (68) Créer mon compte
78 00'00'' 6:16:03 ALAIN GUIGAL 67 TOULON TRIATHLON MS4 (20)49'44'' (77)3h21'36'' (79)1h58'57'' (65) Sa course
79 00'00'' 6:18:57 BERGER Jean-François SORGUES TRIATHLON MV1 (11)49'28'' (76)3h14'15'' (74)2h09'58'' (80) Créer mon compte
80 00'00'' 6:19:48 DUPIN Ludovic ROANNE TRIATHLON MS3 (19)45'53'' (67)3h29'11'' (82)2h00'12'' (67) Créer mon compte
81 00'00'' 6:22:51 VACHON Stéphane LEMPDES TRIATHLON MS3 (20)48'43'' (74)3h29'44'' (84)2h00'37'' (69) Créer mon compte
82 00'45'' 6:27:47 DURAND Philippe ASPTT VICHY TRIATHLON MV2 (10)42'02'' (40)3h29'11'' (83)2h11'14'' (81) Créer mon compte
83 00'37'' 6:29:53 JALON Eric ASMSE TRI 42 MV3 (3)46'51'' (68)3h30'52'' (85)2h08'00'' (78) Créer mon compte
84 "7 00'06'' 6:33:15 GAGNERET Cécile CLERMONT TRIATHLON FS2 (3)41'19'' (37)3h21'40'' (80)2h26'36'' (85) Créer mon compte
85 "8 00'01'' 6:33:40 BUREAU Agnès AL ECHIROLLES TRI FS3 (2)44'38'' (64)3h40'22'' (86)2h04'19'' (73) Créer mon compte
86 00'00'' 6:34:47 MEDJADJ Ahmed GERARDMER TRIATHLON MV1 (12)53'22'' (86)3h15'37'' (76)2h20'04'' (82) Créer mon compte
87 00'50'' 6:44:13 PERRET Laurent ASPTT VICHY TRIATHLON MS4 (21)48'08'' (70)3h49'20'' (88)2h03'13'' (72) Créer mon compte
88 00'00'' 6:55:42 MONGARNY Nicolas HAUTE CORREZE TRI MS2 (10)52'29'' (81)00'00''00'00'' Créer mon compte
89 00'58'' 7:02:06 GERMAIN Emmanuel CHAMPIGNY TRIATHLON MS4 (22)41'56'' (39)3h40'48'' (87)2h20'48'' (83) Créer mon compte
90 01'02'' 7:43:28 DUCERF Patrick TRI MAY MV3 (4)56'00'' (91)3h55'31'' (89)2h43'37'' (86) Créer mon compte
91 "9 00'09'' 7:47:26 SPANEVELLO Anne MARIGNANE TRIATHLON FS3 (3)53'35'' (87)3h55'55'' (90)2h52'45'' (87) Créer mon compte
Certaines fonctionnalités de ce site (partage de contenus sur les réseaux sociaux, lecture de vidéos) s’appuient sur des services proposés par des sites tiers. Ces fonctionnalités déposent des cookies permettant notamment à ces sites de tracer votre navigation. Ces cookies ne sont déposés que si vous donnez votre accord. Vous pouvez vous informer sur la nature des cookies déposés, les accepter ou les refuser globalement.
Plus d'info Je donne mon accord